sensor_id;sensor_type;location;lat;lon;timestamp;pressure;altitude;pressure_sealevel;temperature;humidity
58668;BME280;59852;43.086;25.634;2023-07-13T00:00:35;98830.09;;;24.24;63.78
58668;BME280;59852;43.086;25.634;2023-07-13T00:03:01;98830.34;;;24.29;63.31
58668;BME280;59852;43.086;25.634;2023-07-13T00:05:26;98829.47;;;24.22;63.44
58668;BME280;59852;43.086;25.634;2023-07-13T00:07:52;98823.66;;;24.18;64.12
58668;BME280;59852;43.086;25.634;2023-07-13T00:10:17;98819.53;;;24.16;63.44
58668;BME280;59852;43.086;25.634;2023-07-13T00:12:43;98822.59;;;24.13;63.73
58668;BME280;59852;43.086;25.634;2023-07-13T00:15:13;98828.97;;;24.12;63.63
58668;BME280;59852;43.086;25.634;2023-07-13T00:17:39;98825.72;;;24.16;63.31
58668;BME280;59852;43.086;25.634;2023-07-13T00:20:04;98827.09;;;24.34;62.92
58668;BME280;59852;43.086;25.634;2023-07-13T00:22:30;98819.28;;;24.32;63.14
58668;BME280;59852;43.086;25.634;2023-07-13T00:24:55;98819.38;;;24.45;62.62
58668;BME280;59852;43.086;25.634;2023-07-13T00:27:21;98816.69;;;24.45;62.62
58668;BME280;59852;43.086;25.634;2023-07-13T00:29:47;98817.88;;;24.36;62.79
58668;BME280;59852;43.086;25.634;2023-07-13T00:32:12;98815.09;;;24.51;62.56
58668;BME280;59852;43.086;25.634;2023-07-13T00:34:38;98818.94;;;24.42;62.75
58668;BME280;59852;43.086;25.634;2023-07-13T00:37:04;98812.38;;;24.44;62.76
58668;BME280;59852;43.086;25.634;2023-07-13T00:39:31;98818.25;;;24.33;63.45
58668;BME280;59852;43.086;25.634;2023-07-13T00:41:57;98806.63;;;24.19;63.81
58668;BME280;59852;43.086;25.634;2023-07-13T00:44:22;98815.06;;;24.23;64.27
58668;BME280;59852;43.086;25.634;2023-07-13T00:46:48;98806.44;;;24.21;63.72
58668;BME280;59852;43.086;25.634;2023-07-13T00:49:18;98809.09;;;24.21;63.82
58668;BME280;59852;43.086;25.634;2023-07-13T00:51:54;98810.13;;;24.20;63.74
58668;BME280;59852;43.086;25.634;2023-07-13T00:54:28;98807.63;;;24.18;63.89
58668;BME280;59852;43.086;25.634;2023-07-13T00:56:55;98803.56;;;24.22;63.42
58668;BME280;59852;43.086;25.634;2023-07-13T00:59:22;98800.00;;;24.15;63.86
58668;BME280;59852;43.086;25.634;2023-07-13T01:01:48;98807.19;;;24.15;63.82
58668;BME280;59852;43.086;25.634;2023-07-13T01:04:13;98803.66;;;24.08;64.40
58668;BME280;59852;43.086;25.634;2023-07-13T01:06:39;98803.66;;;24.08;64.44
58668;BME280;59852;43.086;25.634;2023-07-13T01:09:05;98804.63;;;24.00;64.66
58668;BME280;59852;43.086;25.634;2023-07-13T01:11:31;98799.53;;;24.05;64.07
58668;BME280;59852;43.086;25.634;2023-07-13T01:13:57;98805.16;;;24.17;63.41
58668;BME280;59852;43.086;25.634;2023-07-13T01:16:24;98800.88;;;24.22;63.14
58668;BME280;59852;43.086;25.634;2023-07-13T01:18:50;98801.47;;;24.18;63.19
58668;BME280;59852;43.086;25.634;2023-07-13T01:21:16;98803.03;;;24.06;63.92
58668;BME280;59852;43.086;25.634;2023-07-13T01:23:42;98803.28;;;24.11;63.89
58668;BME280;59852;43.086;25.634;2023-07-13T01:26:09;98809.31;;;24.19;63.87
58668;BME280;59852;43.086;25.634;2023-07-13T01:28:34;98801.81;;;24.08;64.47
58668;BME280;59852;43.086;25.634;2023-07-13T01:31:02;98802.69;;;24.15;64.49
58668;BME280;59852;43.086;25.634;2023-07-13T01:33:27;98797.13;;;24.17;64.30
58668;BME280;59852;43.086;25.634;2023-07-13T01:35:52;98796.84;;;24.05;64.69
58668;BME280;59852;43.086;25.634;2023-07-13T01:38:19;98801.56;;;24.03;65.42
58668;BME280;59852;43.086;25.634;2023-07-13T01:40:45;98800.31;;;23.78;65.66
58668;BME280;59852;43.086;25.634;2023-07-13T01:43:10;98801.88;;;23.65;65.58
58668;BME280;59852;43.086;25.634;2023-07-13T01:45:36;98803.50;;;23.88;65.60
58668;BME280;59852;43.086;25.634;2023-07-13T01:48:01;98808.22;;;23.86;66.31
58668;BME280;59852;43.086;25.634;2023-07-13T01:50:26;98792.50;;;23.76;65.09
58668;BME280;59852;43.086;25.634;2023-07-13T01:52:52;98800.66;;;23.89;66.04
58668;BME280;59852;43.086;25.634;2023-07-13T01:55:17;98799.69;;;23.54;65.94
58668;BME280;59852;43.086;25.634;2023-07-13T01:57:43;98804.09;;;23.62;65.98
58668;BME280;59852;43.086;25.634;2023-07-13T02:00:09;98806.66;;;23.70;65.72
58668;BME280;59852;43.086;25.634;2023-07-13T02:02:35;98805.88;;;23.76;65.16
58668;BME280;59852;43.086;25.634;2023-07-13T02:05:00;98803.19;;;23.76;64.52
58668;BME280;59852;43.086;25.634;2023-07-13T02:07:26;98797.41;;;23.72;64.54
58668;BME280;59852;43.086;25.634;2023-07-13T02:09:51;98799.75;;;23.82;64.56
58668;BME280;59852;43.086;25.634;2023-07-13T02:12:16;98799.75;;;23.82;64.30
58668;BME280;59852;43.086;25.634;2023-07-13T02:14:41;98800.31;;;23.78;63.99
58668;BME280;59852;43.086;25.634;2023-07-13T02:17:09;98807.31;;;23.79;63.57
58668;BME280;59852;43.086;25.634;2023-07-13T02:19:34;98807.97;;;23.81;64.16
58668;BME280;59852;43.086;25.634;2023-07-13T02:22:00;98806.44;;;23.93;64.25
58668;BME280;59852;43.086;25.634;2023-07-13T02:24:25;98803.59;;;23.73;65.64
58668;BME280;59852;43.086;25.634;2023-07-13T02:26:50;98814.97;;;23.82;64.55
58668;BME280;59852;43.086;25.634;2023-07-13T02:29:16;98813.31;;;23.81;64.16
58668;BME280;59852;43.086;25.634;2023-07-13T02:31:41;98811.50;;;23.88;63.47
58668;BME280;59852;43.086;25.634;2023-07-13T02:34:07;98811.50;;;23.88;63.67
58668;BME280;59852;43.086;25.634;2023-07-13T02:36:32;98811.06;;;23.84;63.75
58668;BME280;59852;43.086;25.634;2023-07-13T02:39:00;98812.53;;;23.87;63.67
58668;BME280;59852;43.086;25.634;2023-07-13T02:41:26;98814.38;;;23.86;63.86
58668;BME280;59852;43.086;25.634;2023-07-13T02:43:51;98805.94;;;23.83;63.82
58668;BME280;59852;43.086;25.634;2023-07-13T02:46:16;98810.06;;;23.85;63.48
58668;BME280;59852;43.086;25.634;2023-07-13T02:48:47;98810.56;;;23.74;63.82
58668;BME280;59852;43.086;25.634;2023-07-13T02:51:12;98814.16;;;23.60;65.03
58668;BME280;59852;43.086;25.634;2023-07-13T02:53:37;98816.47;;;23.69;65.48
58668;BME280;59852;43.086;25.634;2023-07-13T02:56:03;98817.69;;;23.67;65.46
58668;BME280;59852;43.086;25.634;2023-07-13T02:58:29;98817.94;;;23.51;65.78
58668;BME280;59852;43.086;25.634;2023-07-13T03:00:55;98821.03;;;23.54;66.09
58668;BME280;59852;43.086;25.634;2023-07-13T03:03:23;98812.97;;;23.47;65.96
58668;BME280;59852;43.086;25.634;2023-07-13T03:05:48;98818.19;;;23.77;66.48
58668;BME280;59852;43.086;25.634;2023-07-13T03:08:22;98820.44;;;23.73;65.88
58668;BME280;59852;43.086;25.634;2023-07-13T03:10:48;98820.50;;;23.80;65.79
58668;BME280;59852;43.086;25.634;2023-07-13T03:13:13;98817.13;;;23.71;66.22
58668;BME280;59852;43.086;25.634;2023-07-13T03:15:38;98812.22;;;23.54;67.00
58668;BME280;59852;43.086;25.634;2023-07-13T03:18:04;98821.66;;;23.56;67.25
58668;BME280;59852;43.086;25.634;2023-07-13T03:20:32;98823.00;;;23.45;67.34
58668;BME280;59852;43.086;25.634;2023-07-13T03:22:57;98825.56;;;23.54;67.58
58668;BME280;59852;43.086;25.634;2023-07-13T03:25:22;98820.97;;;23.47;67.57
58668;BME280;59852;43.086;25.634;2023-07-13T03:27:47;98829.97;;;23.61;67.71
58668;BME280;59852;43.086;25.634;2023-07-13T03:30:13;98821.47;;;23.58;68.15
58668;BME280;59852;43.086;25.634;2023-07-13T03:32:38;98828.84;;;23.56;68.08
58668;BME280;59852;43.086;25.634;2023-07-13T03:35:04;98828.78;;;23.49;68.97
58668;BME280;59852;43.086;25.634;2023-07-13T03:37:29;98820.97;;;23.47;69.28
58668;BME280;59852;43.086;25.634;2023-07-13T03:39:54;98822.78;;;23.62;67.79
58668;BME280;59852;43.086;25.634;2023-07-13T03:42:20;98824.44;;;23.63;66.21
58668;BME280;59852;43.086;25.634;2023-07-13T03:44:45;98825.66;;;23.82;66.20
58668;BME280;59852;43.086;25.634;2023-07-13T03:47:17;98819.59;;;23.94;65.47
58668;BME280;59852;43.086;25.634;2023-07-13T03:49:42;98834.25;;;24.05;66.10
58668;BME280;59852;43.086;25.634;2023-07-13T03:52:07;98833.97;;;23.93;67.40
58668;BME280;59852;43.086;25.634;2023-07-13T03:54:35;98829.25;;;23.95;67.59
58668;BME280;59852;43.086;25.634;2023-07-13T03:57:04;98830.59;;;23.85;69.23
58668;BME280;59852;43.086;25.634;2023-07-13T03:59:31;98830.28;;;23.94;68.17
58668;BME280;59852;43.086;25.634;2023-07-13T04:02:00;98830.06;;;23.96;68.80
58668;BME280;59852;43.086;25.634;2023-07-13T04:04:25;98830.97;;;24.03;68.59
58668;BME280;59852;43.086;25.634;2023-07-13T04:06:53;98825.47;;;24.11;68.55
58668;BME280;59852;43.086;25.634;2023-07-13T04:09:18;98830.69;;;24.19;67.58
58668;BME280;59852;43.086;25.634;2023-07-13T04:11:43;98830.97;;;24.03;68.63
58668;BME280;59852;43.086;25.634;2023-07-13T04:14:09;98830.81;;;24.11;68.82
58668;BME280;59852;43.086;25.634;2023-07-13T04:16:34;98829.22;;;24.17;69.21
58668;BME280;59852;43.086;25.634;2023-07-13T04:19:00;98828.09;;;24.04;70.12
58668;BME280;59852;43.086;25.634;2023-07-13T04:21:29;98833.97;;;23.93;70.94
58668;BME280;59852;43.086;25.634;2023-07-13T04:23:54;98826.31;;;24.12;70.42
58668;BME280;59852;43.086;25.634;2023-07-13T04:26:20;98837.22;;;24.17;69.72
58668;BME280;59852;43.086;25.634;2023-07-13T04:28:48;98835.84;;;24.49;69.18
58668;BME280;59852;43.086;25.634;2023-07-13T04:31:14;98833.81;;;24.51;68.52
58668;BME280;59852;43.086;25.634;2023-07-13T04:33:39;98842.03;;;24.49;69.77
58668;BME280;59852;43.086;25.634;2023-07-13T04:36:05;98839.53;;;24.48;70.21
58668;BME280;59852;43.086;25.634;2023-07-13T04:38:34;98835.31;;;24.60;67.78
58668;BME280;59852;43.086;25.634;2023-07-13T04:41:01;98829.19;;;24.73;66.78
58668;BME280;59852;43.086;25.634;2023-07-13T04:43:27;98832.94;;;24.85;64.73
58668;BME280;59852;43.086;25.634;2023-07-13T04:45:53;98836.47;;;24.51;67.38
58668;BME280;59852;43.086;25.634;2023-07-13T04:48:19;98834.50;;;24.66;66.61
58668;BME280;59852;43.086;25.634;2023-07-13T04:50:45;98839.75;;;24.87;64.77
58668;BME280;59852;43.086;25.634;2023-07-13T04:53:10;98843.00;;;25.11;62.36
58668;BME280;59852;43.086;25.634;2023-07-13T04:55:36;98853.28;;;25.07;61.71
58668;BME280;59852;43.086;25.634;2023-07-13T04:58:02;98854.75;;;24.82;63.17
58668;BME280;59852;43.086;25.634;2023-07-13T05:00:28;98863.34;;;24.71;63.22
58668;BME280;59852;43.086;25.634;2023-07-13T05:02:57;98863.00;;;24.87;63.70
58668;BME280;59852;43.086;25.634;2023-07-13T05:05:23;98860.03;;;25.03;64.67
58668;BME280;59852;43.086;25.634;2023-07-13T05:07:49;98857.59;;;25.08;65.05
58668;BME280;59852;43.086;25.634;2023-07-13T05:10:14;98859.50;;;24.86;62.51
58668;BME280;59852;43.086;25.634;2023-07-13T05:12:40;98858.72;;;24.93;64.58
58668;BME280;59852;43.086;25.634;2023-07-13T05:15:05;98856.66;;;25.29;61.43
58668;BME280;59852;43.086;25.634;2023-07-13T05:17:31;98863.63;;;25.24;59.90
58668;BME280;59852;43.086;25.634;2023-07-13T05:19:56;98861.63;;;25.39;60.06
58668;BME280;59852;43.086;25.634;2023-07-13T05:22:21;98859.31;;;25.36;58.56
58668;BME280;59852;43.086;25.634;2023-07-13T05:24:47;98856.50;;;25.51;58.10
58668;BME280;59852;43.086;25.634;2023-07-13T05:27:12;98858.63;;;25.75;59.26
58668;BME280;59852;43.086;25.634;2023-07-13T05:29:37;98861.38;;;25.34;58.53
58668;BME280;59852;43.086;25.634;2023-07-13T05:32:03;98863.13;;;25.61;58.47
58668;BME280;59852;43.086;25.634;2023-07-13T05:34:29;98856.34;;;25.72;57.64
58668;BME280;59852;43.086;25.634;2023-07-13T05:36:54;98853.69;;;25.79;58.38
58668;BME280;59852;43.086;25.634;2023-07-13T05:39:22;98859.19;;;25.57;59.13
58668;BME280;59852;43.086;25.634;2023-07-13T05:41:48;98861.75;;;25.79;59.66
58668;BME280;59852;43.086;25.634;2023-07-13T05:44:13;98859.69;;;26.00;58.68
58668;BME280;59852;43.086;25.634;2023-07-13T05:46:38;98863.41;;;25.99;58.62
58668;BME280;59852;43.086;25.634;2023-07-13T05:49:04;98863.41;;;26.13;57.69
58668;BME280;59852;43.086;25.634;2023-07-13T05:51:29;98874.75;;;26.21;57.71
58668;BME280;59852;43.086;25.634;2023-07-13T05:53:54;98874.34;;;26.18;58.26
58668;BME280;59852;43.086;25.634;2023-07-13T05:56:20;98868.56;;;26.27;57.85
58668;BME280;59852;43.086;25.634;2023-07-13T05:58:45;98868.16;;;26.50;56.47
58668;BME280;59852;43.086;25.634;2023-07-13T06:01:11;98872.66;;;26.70;57.28
58668;BME280;59852;43.086;25.634;2023-07-13T06:03:39;98873.31;;;26.65;57.70
58668;BME280;59852;43.086;25.634;2023-07-13T06:06:05;98867.50;;;26.68;57.78
58668;BME280;59852;43.086;25.634;2023-07-13T06:08:31;98866.91;;;26.59;57.82
58668;BME280;59852;43.086;25.634;2023-07-13T06:11:04;98869.16;;;26.76;58.42
58668;BME280;59852;43.086;25.634;2023-07-13T06:13:30;98869.50;;;26.93;56.86
58668;BME280;59852;43.086;25.634;2023-07-13T06:15:55;98874.84;;;26.93;56.79
58668;BME280;59852;43.086;25.634;2023-07-13T06:18:20;98865.38;;;26.97;56.15
58668;BME280;59852;43.086;25.634;2023-07-13T06:20:46;98874.44;;;27.02;56.68
58668;BME280;59852;43.086;25.634;2023-07-13T06:23:11;98870.09;;;27.01;57.18
58668;BME280;59852;43.086;25.634;2023-07-13T06:25:37;98866.56;;;27.14;55.47
58668;BME280;59852;43.086;25.634;2023-07-13T06:28:02;98863.03;;;27.20;55.35
58668;BME280;59852;43.086;25.634;2023-07-13T06:30:27;98864.44;;;27.23;54.98
58668;BME280;59852;43.086;25.634;2023-07-13T06:32:53;98861.97;;;27.28;54.78
58668;BME280;59852;43.086;25.634;2023-07-13T06:35:18;98866.28;;;27.29;55.20
58668;BME280;59852;43.086;25.634;2023-07-13T06:37:43;98871.44;;;27.37;56.58
58668;BME280;59852;43.086;25.634;2023-07-13T06:40:09;98867.72;;;27.31;56.28
58668;BME280;59852;43.086;25.634;2023-07-13T06:42:34;98870.09;;;27.53;55.44
58668;BME280;59852;43.086;25.634;2023-07-13T06:45:00;98865.66;;;27.71;54.40
58668;BME280;59852;43.086;25.634;2023-07-13T06:47:25;98865.88;;;27.70;55.16
58668;BME280;59852;43.086;25.634;2023-07-13T06:49:50;98867.47;;;27.84;54.60
58668;BME280;59852;43.086;25.634;2023-07-13T06:52:16;98865.00;;;27.83;54.29
58668;BME280;59852;43.086;25.634;2023-07-13T06:54:41;98867.91;;;28.06;54.03
58668;BME280;59852;43.086;25.634;2023-07-13T06:57:06;98866.66;;;28.09;53.97
58668;BME280;59852;43.086;25.634;2023-07-13T06:59:32;98869.22;;;28.22;53.74
58668;BME280;59852;43.086;25.634;2023-07-13T07:01:57;98871.91;;;27.97;53.86
58668;BME280;59852;43.086;25.634;2023-07-13T07:04:23;98867.94;;;27.99;54.56
58668;BME280;59852;43.086;25.634;2023-07-13T07:06:48;98868.38;;;28.21;53.74
58668;BME280;59852;43.086;25.634;2023-07-13T07:09:13;98867.66;;;28.39;54.41
58668;BME280;59852;43.086;25.634;2023-07-13T07:11:39;98866.63;;;28.58;52.66
58668;BME280;59852;43.086;25.634;2023-07-13T07:14:05;98864.53;;;28.61;52.94
58668;BME280;59852;43.086;25.634;2023-07-13T07:16:30;98858.00;;;28.75;52.05
58668;BME280;59852;43.086;25.634;2023-07-13T07:18:55;98864.06;;;28.89;51.97
58668;BME280;59852;43.086;25.634;2023-07-13T07:21:21;98859.72;;;29.24;51.60
58668;BME280;59852;43.086;25.634;2023-07-13T07:23:48;98859.69;;;29.42;52.90
58668;BME280;59852;43.086;25.634;2023-07-13T07:26:13;98853.66;;;29.59;50.80
58668;BME280;59852;43.086;25.634;2023-07-13T07:28:38;98861.44;;;29.67;51.87
58668;BME280;59852;43.086;25.634;2023-07-13T07:31:04;98854.16;;;29.67;50.92
58668;BME280;59852;43.086;25.634;2023-07-13T07:33:29;98855.06;;;29.31;49.81
58668;BME280;59852;43.086;25.634;2023-07-13T07:35:55;98861.69;;;29.47;51.14
58668;BME280;59852;43.086;25.634;2023-07-13T07:38:20;98854.28;;;29.61;51.51
58668;BME280;59852;43.086;25.634;2023-07-13T07:40:45;98849.59;;;29.68;51.71
58668;BME280;59852;43.086;25.634;2023-07-13T07:43:12;98850.00;;;29.83;50.36
58668;BME280;59852;43.086;25.634;2023-07-13T07:45:38;98849.19;;;29.83;50.22
58668;BME280;59852;43.086;25.634;2023-07-13T07:48:04;98847.81;;;30.04;50.50
58668;BME280;59852;43.086;25.634;2023-07-13T07:50:29;98852.75;;;30.18;49.75
58668;BME280;59852;43.086;25.634;2023-07-13T07:52:55;98856.03;;;30.09;48.99
58668;BME280;59852;43.086;25.634;2023-07-13T07:55:23;98848.41;;;30.17;49.98
58668;BME280;59852;43.086;25.634;2023-07-13T07:57:50;98851.16;;;30.29;48.35
58668;BME280;59852;43.086;25.634;2023-07-13T08:00:16;98852.22;;;30.40;48.11
58668;BME280;59852;43.086;25.634;2023-07-13T08:02:43;98860.63;;;30.55;47.88
58668;BME280;59852;43.086;25.634;2023-07-13T08:05:08;98857.50;;;30.70;48.41
58668;BME280;59852;43.086;25.634;2023-07-13T08:07:35;98852.06;;;30.81;47.27
58668;BME280;59852;43.086;25.634;2023-07-13T08:10:00;98853.13;;;30.80;47.11
58668;BME280;59852;43.086;25.634;2023-07-13T08:12:26;98857.16;;;30.78;46.48
58668;BME280;59852;43.086;25.634;2023-07-13T08:14:51;98853.59;;;30.89;46.04
58668;BME280;59852;43.086;25.634;2023-07-13T08:17:22;98851.22;;;30.93;46.48
58668;BME280;59852;43.086;25.634;2023-07-13T08:19:48;98854.25;;;31.08;46.88
58668;BME280;59852;43.086;25.634;2023-07-13T08:22:13;98845.41;;;31.24;46.25
58668;BME280;59852;43.086;25.634;2023-07-13T08:24:38;98841.56;;;31.08;44.81
58668;BME280;59852;43.086;25.634;2023-07-13T08:27:04;98845.75;;;31.16;46.38
58668;BME280;59852;43.086;25.634;2023-07-13T08:29:29;98847.59;;;31.39;44.98
58668;BME280;59852;43.086;25.634;2023-07-13T08:31:59;98832.59;;;31.31;44.24
58668;BME280;59852;43.086;25.634;2023-07-13T08:34:24;98840.88;;;31.42;44.94
58668;BME280;59852;43.086;25.634;2023-07-13T08:36:50;98850.19;;;31.62;44.59
58668;BME280;59852;43.086;25.634;2023-07-13T08:39:16;98846.16;;;31.65;44.23
58668;BME280;59852;43.086;25.634;2023-07-13T08:41:41;98845.19;;;31.71;42.81
58668;BME280;59852;43.086;25.634;2023-07-13T08:44:10;98840.41;;;31.90;40.77
58668;BME280;59852;43.086;25.634;2023-07-13T08:46:43;98837.47;;;32.08;43.82
58668;BME280;59852;43.086;25.634;2023-07-13T08:49:12;98838.44;;;32.02;43.11
58668;BME280;59852;43.086;25.634;2023-07-13T08:54:09;98827.69;;;32.24;38.38
58668;BME280;59852;43.086;25.634;2023-07-13T08:56:36;98826.97;;;32.29;38.89
58668;BME280;59852;43.086;25.634;2023-07-13T08:59:15;98835.16;;;32.34;40.32
58668;BME280;59852;43.086;25.634;2023-07-13T09:04:29;98824.97;;;32.58;38.61
58668;BME280;59852;43.086;25.634;2023-07-13T09:07:05;98812.00;;;32.60;38.01
58668;BME280;59852;43.086;25.634;2023-07-13T09:12:23;98811.78;;;32.83;39.40
58668;BME280;59852;43.086;25.634;2023-07-13T09:14:53;98808.75;;;33.01;39.79
58668;BME280;59852;43.086;25.634;2023-07-13T09:17:21;98811.78;;;32.83;37.25
58668;BME280;59852;43.086;25.634;2023-07-13T09:19:53;98808.38;;;32.93;37.49
58668;BME280;59852;43.086;25.634;2023-07-13T09:22:21;98812.00;;;33.03;37.78
58668;BME280;59852;43.086;25.634;2023-07-13T09:27:19;98802.78;;;32.99;38.87
58668;BME280;59852;43.086;25.634;2023-07-13T09:37:01;98798.16;;;33.49;nan
58668;BME280;59852;43.086;25.634;2023-07-13T09:39:28;98797.56;;;33.20;nan
58668;BME280;59852;43.086;25.634;2023-07-13T09:41:57;98798.75;;;33.29;nan
58668;BME280;59852;43.086;25.634;2023-07-13T09:44:35;98806.47;;;33.37;nan
58668;BME280;59852;43.086;25.634;2023-07-13T09:47:01;98795.91;;;33.41;nan
58668;BME280;59852;43.086;25.634;2023-07-13T09:49:32;98800.72;;;33.60;nan
58668;BME280;59852;43.086;25.634;2023-07-13T09:52:02;98796.19;;;33.71;nan
58668;BME280;59852;43.086;25.634;2023-07-13T09:54:29;98801.69;;;33.76;nan
58668;BME280;59852;43.086;25.634;2023-07-13T09:56:58;98799.22;;;33.75;nan
58668;BME280;59852;43.086;25.634;2023-07-13T09:59:26;98796.03;;;33.83;nan
58668;BME280;59852;43.086;25.634;2023-07-13T10:01:52;98790.19;;;33.64;nan
58668;BME280;59852;43.086;25.634;2023-07-13T10:04:18;98782.63;;;33.71;nan
58668;BME280;59852;43.086;25.634;2023-07-13T10:06:44;98791.25;;;33.63;nan
58668;BME280;59852;43.086;25.634;2023-07-13T10:09:09;98785.25;;;33.88;nan
58668;BME280;59852;43.086;25.634;2023-07-13T10:11:36;98789.00;;;33.87;nan
58668;BME280;59852;43.086;25.634;2023-07-13T10:14:13;98794.00;;;34.00;nan
58668;BME280;59852;43.086;25.634;2023-07-13T10:16:39;98792.91;;;33.96;nan
58668;BME280;59852;43.086;25.634;2023-07-13T10:19:21;98795.41;;;34.03;nan
58668;BME280;59852;43.086;25.634;2023-07-13T10:21:53;98794.91;;;34.11;nan
58668;BME280;59852;43.086;25.634;2023-07-13T10:24:21;98790.75;;;33.98;nan
58668;BME280;59852;43.086;25.634;2023-07-13T10:26:57;98787.84;;;34.10;nan
58668;BME280;59852;43.086;25.634;2023-07-13T10:29:25;98782.47;;;34.20;nan
58668;BME280;59852;43.086;25.634;2023-07-13T10:31:52;98791.22;;;34.27;nan
58668;BME280;59852;43.086;25.634;2023-07-13T10:34:18;98779.19;;;34.13;nan
58668;BME280;59852;43.086;25.634;2023-07-13T10:36:44;98771.81;;;34.08;nan
58668;BME280;59852;43.086;25.634;2023-07-13T10:39:14;98769.72;;;34.20;nan
58668;BME280;59852;43.086;25.634;2023-07-13T10:41:41;98767.81;;;34.21;nan
58668;BME280;59852;43.086;25.634;2023-07-13T10:44:11;98760.97;;;34.08;nan
58668;BME280;59852;43.086;25.634;2023-07-13T10:46:40;98762.72;;;34.30;nan
58668;BME280;59852;43.086;25.634;2023-07-13T10:49:06;98762.16;;;34.28;nan
58668;BME280;59852;43.086;25.634;2023-07-13T10:51:33;98766.09;;;34.42;nan
58668;BME280;59852;43.086;25.634;2023-07-13T10:54:44;98768.97;;;34.30;nan
58668;BME280;59852;43.086;25.634;2023-07-13T10:56:47;98774.44;;;34.35;nan
58668;BME280;59852;43.086;25.634;2023-07-13T10:59:14;98778.31;;;34.49;nan
58668;BME280;59852;43.086;25.634;2023-07-13T11:01:54;98779.28;;;34.28;nan
58668;BME280;59852;43.086;25.634;2023-07-13T11:04:21;98780.41;;;34.32;nan
58668;BME280;59852;43.086;25.634;2023-07-13T11:06:50;98789.88;;;34.72;nan
58668;BME280;59852;43.086;25.634;2023-07-13T11:12:08;98786.19;;;34.46;nan
58668;BME280;59852;43.086;25.634;2023-07-13T11:14:35;98780.81;;;34.56;nan
58668;BME280;59852;43.086;25.634;2023-07-13T11:35:34;98746.16;;;34.84;nan
58668;BME280;59852;43.086;25.634;2023-07-13T11:38:01;98742.69;;;35.08;nan
58668;BME280;59852;43.086;25.634;2023-07-13T11:40:27;98747.84;;;35.00;nan
58668;BME280;59852;43.086;25.634;2023-07-13T11:43:01;98740.47;;;34.90;nan
58668;BME280;59852;43.086;25.634;2023-07-13T11:45:27;98731.28;;;35.06;nan
58668;BME280;59852;43.086;25.634;2023-07-13T11:47:53;98743.53;;;35.04;nan
58668;BME280;59852;43.086;25.634;2023-07-13T11:50:20;98732.69;;;35.24;nan
58668;BME280;59852;43.086;25.634;2023-07-13T11:52:46;98725.59;;;35.03;nan
58668;BME280;59852;43.086;25.634;2023-07-13T11:55:14;98731.56;;;35.15;nan
58668;BME280;59852;43.086;25.634;2023-07-13T11:57:41;98719.31;;;35.07;nan
58668;BME280;59852;43.086;25.634;2023-07-13T12:00:12;98706.03;;;35.11;nan
58668;BME280;59852;43.086;25.634;2023-07-13T12:02:40;98711.72;;;35.10;nan
58668;BME280;59852;43.086;25.634;2023-07-13T12:05:09;98708.19;;;35.09;nan
58668;BME280;59852;43.086;25.634;2023-07-13T12:07:37;98712.81;;;35.29;nan
58668;BME280;59852;43.086;25.634;2023-07-13T12:10:25;98708.19;;;35.19;nan
58668;BME280;59852;43.086;25.634;2023-07-13T12:15:14;98706.81;;;35.01;nan
58668;BME280;59852;43.086;25.634;2023-07-13T12:17:40;98689.72;;;35.16;nan
58668;BME280;59852;43.086;25.634;2023-07-13T12:20:26;98681.81;;;35.25;nan
58668;BME280;59852;43.086;25.634;2023-07-13T12:22:51;98685.09;;;35.32;nan
58668;BME280;59852;43.086;25.634;2023-07-13T12:25:17;98682.38;;;35.57;nan
58668;BME280;59852;43.086;25.634;2023-07-13T12:27:46;98682.91;;;35.75;nan
58668;BME280;59852;43.086;25.634;2023-07-13T12:32:42;98684.28;;;35.57;nan
58668;BME280;59852;43.086;25.634;2023-07-13T12:35:15;98676.16;;;35.42;nan
58668;BME280;59852;43.086;25.634;2023-07-13T12:37:44;98682.66;;;35.56;nan
58668;BME280;59852;43.086;25.634;2023-07-13T12:40:17;98671.78;;;35.46;nan
58668;BME280;59852;43.086;25.634;2023-07-13T12:42:47;98658.47;;;35.44;nan
58668;BME280;59852;43.086;25.634;2023-07-13T12:45:21;98658.72;;;35.58;nan
58668;BME280;59852;43.086;25.634;2023-07-13T12:47:52;98651.13;;;35.50;nan
58668;BME280;59852;43.086;25.634;2023-07-13T12:50:19;98643.50;;;35.31;nan
58668;BME280;59852;43.086;25.634;2023-07-13T12:52:53;98650.88;;;35.41;nan
58668;BME280;59852;43.086;25.634;2023-07-13T12:55:20;98650.28;;;35.64;nan
58668;BME280;59852;43.086;25.634;2023-07-13T13:00:21;98644.59;;;35.51;nan
58668;BME280;59852;43.086;25.634;2023-07-13T13:02:49;98647.03;;;35.27;nan
58668;BME280;59852;43.086;25.634;2023-07-13T13:05:15;98630.19;;;35.40;nan
58668;BME280;59852;43.086;25.634;2023-07-13T13:07:41;98632.34;;;35.38;nan
58668;BME280;59852;43.086;25.634;2023-07-13T13:10:12;98635.34;;;35.31;nan
58668;BME280;59852;43.086;25.634;2023-07-13T13:12:38;98635.59;;;35.30;nan
58668;BME280;59852;43.086;25.634;2023-07-13T13:15:04;98635.06;;;35.33;nan
58668;BME280;59852;43.086;25.634;2023-07-13T13:17:31;98632.06;;;35.29;nan
58668;BME280;59852;43.086;25.634;2023-07-13T13:19:57;98623.66;;;35.31;nan
58668;BME280;59852;43.086;25.634;2023-07-13T13:22:23;98631.53;;;35.17;nan
58668;BME280;59852;43.086;25.634;2023-07-13T13:24:48;98626.63;;;35.24;nan
58668;BME280;59852;43.086;25.634;2023-07-13T13:27:18;98634.50;;;35.16;nan
58668;BME280;59852;43.086;25.634;2023-07-13T13:29:44;98630.97;;;35.25;nan
58668;BME280;59852;43.086;25.634;2023-07-13T13:32:13;98632.06;;;35.34;nan
58668;BME280;59852;43.086;25.634;2023-07-13T13:34:39;98632.06;;;35.40;nan
58668;BME280;59852;43.086;25.634;2023-07-13T13:37:08;98640.22;;;35.40;nan
58668;BME280;59852;43.086;25.634;2023-07-13T13:39:40;98638.06;;;35.16;nan